sensor_id;sensor_type;location;lat;lon;timestamp;P1;durP1;ratioP1;P2;durP2;ratioP2
72557;SDS011;60583;50.094;8.748;2024-03-07T00:02:44;34.53;;;17.00;;
72557;SDS011;60583;50.094;8.748;2024-03-07T00:05:31;34.22;;;17.30;;
72557;SDS011;60583;50.094;8.748;2024-03-07T00:08:15;35.30;;;17.75;;
72557;SDS011;60583;50.094;8.748;2024-03-07T00:10:59;34.53;;;16.60;;
72557;SDS011;60583;50.094;8.748;2024-03-07T00:13:43;33.15;;;17.00;;
72557;SDS011;60583;50.094;8.748;2024-03-07T00:16:27;37.45;;;19.83;;
72557;SDS011;60583;50.094;8.748;2024-03-07T00:19:11;35.30;;;18.30;;
72557;SDS011;60583;50.094;8.748;2024-03-07T00:21:57;36.10;;;17.95;;
72557;SDS011;60583;50.094;8.748;2024-03-07T00:24:41;35.65;;;17.05;;
72557;SDS011;60583;50.094;8.748;2024-03-07T00:27:26;34.60;;;18.70;;
72557;SDS011;60583;50.094;8.748;2024-03-07T00:30:10;35.42;;;19.13;;
72557;SDS011;60583;50.094;8.748;2024-03-07T00:32:57;34.17;;;17.60;;
72557;SDS011;60583;50.094;8.748;2024-03-07T00:35:41;35.22;;;18.10;;
72557;SDS011;60583;50.094;8.748;2024-03-07T00:38:25;36.72;;;17.88;;
72557;SDS011;60583;50.094;8.748;2024-03-07T00:41:09;32.15;;;16.70;;
72557;SDS011;60583;50.094;8.748;2024-03-07T00:43:53;35.15;;;17.88;;
72557;SDS011;60583;50.094;8.748;2024-03-07T00:46:37;34.40;;;18.20;;
72557;SDS011;60583;50.094;8.748;2024-03-07T00:49:21;35.63;;;18.30;;
72557;SDS011;60583;50.094;8.748;2024-03-07T00:52:06;34.33;;;17.80;;
72557;SDS011;60583;50.094;8.748;2024-03-07T00:54:49;37.60;;;17.50;;
72557;SDS011;60583;50.094;8.748;2024-03-07T00:57:34;36.55;;;18.80;;
72557;SDS011;60583;50.094;8.748;2024-03-07T01:00:18;35.40;;;17.00;;
72557;SDS011;60583;50.094;8.748;2024-03-07T01:03:05;35.33;;;16.85;;
72557;SDS011;60583;50.094;8.748;2024-03-07T01:05:49;35.83;;;17.30;;
72557;SDS011;60583;50.094;8.748;2024-03-07T01:08:33;34.53;;;18.15;;
72557;SDS011;60583;50.094;8.748;2024-03-07T01:11:19;35.95;;;18.45;;
72557;SDS011;60583;50.094;8.748;2024-03-07T01:14:02;37.83;;;18.02;;
72557;SDS011;60583;50.094;8.748;2024-03-07T01:16:46;34.28;;;18.30;;
72557;SDS011;60583;50.094;8.748;2024-03-07T01:19:30;36.00;;;19.23;;
72557;SDS011;60583;50.094;8.748;2024-03-07T01:22:14;34.13;;;18.23;;
72557;SDS011;60583;50.094;8.748;2024-03-07T01:24:59;34.15;;;16.83;;
72557;SDS011;60583;50.094;8.748;2024-03-07T01:27:43;33.85;;;19.05;;
72557;SDS011;60583;50.094;8.748;2024-03-07T01:30:27;36.70;;;18.77;;
72557;SDS011;60583;50.094;8.748;2024-03-07T01:33:14;34.92;;;18.20;;
72557;SDS011;60583;50.094;8.748;2024-03-07T01:35:58;33.25;;;18.75;;
72557;SDS011;60583;50.094;8.748;2024-03-07T01:38:42;32.10;;;16.90;;
72557;SDS011;60583;50.094;8.748;2024-03-07T01:41:26;33.45;;;17.77;;
72557;SDS011;60583;50.094;8.748;2024-03-07T01:44:10;33.22;;;17.92;;
72557;SDS011;60583;50.094;8.748;2024-03-07T01:46:54;33.03;;;16.83;;
72557;SDS011;60583;50.094;8.748;2024-03-07T01:49:38;33.28;;;18.02;;
72557;SDS011;60583;50.094;8.748;2024-03-07T01:52:22;37.65;;;18.77;;
72557;SDS011;60583;50.094;8.748;2024-03-07T01:55:07;35.33;;;18.70;;
72557;SDS011;60583;50.094;8.748;2024-03-07T01:57:55;34.05;;;18.00;;
72557;SDS011;60583;50.094;8.748;2024-03-07T02:03:27;35.88;;;16.98;;
72557;SDS011;60583;50.094;8.748;2024-03-07T02:06:11;36.88;;;18.23;;
72557;SDS011;60583;50.094;8.748;2024-03-07T02:08:55;34.50;;;17.88;;
72557;SDS011;60583;50.094;8.748;2024-03-07T02:11:40;38.17;;;17.40;;
72557;SDS011;60583;50.094;8.748;2024-03-07T02:14:24;31.20;;;17.38;;
72557;SDS011;60583;50.094;8.748;2024-03-07T02:17:08;37.88;;;18.85;;
72557;SDS011;60583;50.094;8.748;2024-03-07T02:19:53;34.55;;;17.70;;
72557;SDS011;60583;50.094;8.748;2024-03-07T02:22:37;35.70;;;17.25;;
72557;SDS011;60583;50.094;8.748;2024-03-07T02:25:21;33.15;;;18.05;;
72557;SDS011;60583;50.094;8.748;2024-03-07T02:28:05;31.98;;;16.88;;
72557;SDS011;60583;50.094;8.748;2024-03-07T02:30:50;32.65;;;15.68;;
72557;SDS011;60583;50.094;8.748;2024-03-07T02:33:34;32.67;;;15.25;;
72557;SDS011;60583;50.094;8.748;2024-03-07T02:36:17;31.55;;;14.98;;
72557;SDS011;60583;50.094;8.748;2024-03-07T02:39:02;33.90;;;16.88;;
72557;SDS011;60583;50.094;8.748;2024-03-07T02:41:46;33.83;;;16.20;;
72557;SDS011;60583;50.094;8.748;2024-03-07T02:44:31;29.10;;;16.10;;
72557;SDS011;60583;50.094;8.748;2024-03-07T02:47:15;29.80;;;15.05;;
72557;SDS011;60583;50.094;8.748;2024-03-07T02:49:59;32.28;;;16.23;;
72557;SDS011;60583;50.094;8.748;2024-03-07T02:52:43;32.80;;;16.98;;
72557;SDS011;60583;50.094;8.748;2024-03-07T02:55:27;36.13;;;18.00;;
72557;SDS011;60583;50.094;8.748;2024-03-07T02:58:10;30.95;;;14.70;;
72557;SDS011;60583;50.094;8.748;2024-03-07T03:00:57;31.35;;;15.60;;
72557;SDS011;60583;50.094;8.748;2024-03-07T03:03:43;29.42;;;15.68;;
72557;SDS011;60583;50.094;8.748;2024-03-07T03:06:27;30.88;;;16.35;;
72557;SDS011;60583;50.094;8.748;2024-03-07T03:09:11;30.25;;;15.18;;
72557;SDS011;60583;50.094;8.748;2024-03-07T03:12:00;30.27;;;15.15;;
72557;SDS011;60583;50.094;8.748;2024-03-07T03:14:44;29.65;;;15.15;;
72557;SDS011;60583;50.094;8.748;2024-03-07T03:17:28;28.75;;;15.82;;
72557;SDS011;60583;50.094;8.748;2024-03-07T03:20:12;32.08;;;16.98;;
72557;SDS011;60583;50.094;8.748;2024-03-07T03:23:07;31.25;;;16.10;;
72557;SDS011;60583;50.094;8.748;2024-03-07T03:25:56;28.33;;;15.57;;
72557;SDS011;60583;50.094;8.748;2024-03-07T03:28:40;29.50;;;15.02;;
72557;SDS011;60583;50.094;8.748;2024-03-07T03:31:25;26.77;;;14.20;;
72557;SDS011;60583;50.094;8.748;2024-03-07T03:34:08;28.17;;;13.68;;
72557;SDS011;60583;50.094;8.748;2024-03-07T03:36:53;28.35;;;14.80;;
72557;SDS011;60583;50.094;8.748;2024-03-07T03:39:37;29.85;;;14.55;;
72557;SDS011;60583;50.094;8.748;2024-03-07T03:42:21;27.17;;;14.73;;
72557;SDS011;60583;50.094;8.748;2024-03-07T03:45:06;28.90;;;13.60;;
72557;SDS011;60583;50.094;8.748;2024-03-07T03:47:51;28.10;;;13.25;;
72557;SDS011;60583;50.094;8.748;2024-03-07T03:50:35;30.05;;;16.55;;
72557;SDS011;60583;50.094;8.748;2024-03-07T03:53:19;25.38;;;13.57;;
72557;SDS011;60583;50.094;8.748;2024-03-07T03:56:03;28.73;;;14.20;;
72557;SDS011;60583;50.094;8.748;2024-03-07T03:58:50;28.33;;;13.73;;
72557;SDS011;60583;50.094;8.748;2024-03-07T04:01:34;25.23;;;13.52;;
72557;SDS011;60583;50.094;8.748;2024-03-07T04:04:19;26.77;;;14.07;;
72557;SDS011;60583;50.094;8.748;2024-03-07T04:07:03;26.80;;;14.65;;
72557;SDS011;60583;50.094;8.748;2024-03-07T04:09:47;30.27;;;14.30;;
72557;SDS011;60583;50.094;8.748;2024-03-07T04:12:31;27.00;;;13.90;;
72557;SDS011;60583;50.094;8.748;2024-03-07T04:15:15;29.15;;;14.13;;
72557;SDS011;60583;50.094;8.748;2024-03-07T04:18:00;30.63;;;13.77;;
72557;SDS011;60583;50.094;8.748;2024-03-07T04:20:45;27.88;;;13.38;;
72557;SDS011;60583;50.094;8.748;2024-03-07T04:23:29;28.15;;;14.57;;
72557;SDS011;60583;50.094;8.748;2024-03-07T04:26:13;27.45;;;13.93;;
72557;SDS011;60583;50.094;8.748;2024-03-07T04:28:57;27.90;;;12.88;;
72557;SDS011;60583;50.094;8.748;2024-03-07T04:31:41;26.75;;;13.80;;
72557;SDS011;60583;50.094;8.748;2024-03-07T04:34:25;27.45;;;14.40;;
72557;SDS011;60583;50.094;8.748;2024-03-07T04:37:09;28.70;;;13.10;;
72557;SDS011;60583;50.094;8.748;2024-03-07T04:39:54;27.40;;;13.50;;
72557;SDS011;60583;50.094;8.748;2024-03-07T04:42:38;27.55;;;14.00;;
72557;SDS011;60583;50.094;8.748;2024-03-07T04:45:22;32.95;;;14.48;;
72557;SDS011;60583;50.094;8.748;2024-03-07T04:48:06;27.50;;;14.35;;
72557;SDS011;60583;50.094;8.748;2024-03-07T04:50:49;27.00;;;12.88;;
72557;SDS011;60583;50.094;8.748;2024-03-07T04:53:33;27.13;;;13.35;;
72557;SDS011;60583;50.094;8.748;2024-03-07T04:56:20;26.25;;;13.45;;
72557;SDS011;60583;50.094;8.748;2024-03-07T04:59:04;24.25;;;12.45;;
72557;SDS011;60583;50.094;8.748;2024-03-07T05:01:49;23.27;;;12.38;;
72557;SDS011;60583;50.094;8.748;2024-03-07T05:04:34;27.45;;;14.00;;
72557;SDS011;60583;50.094;8.748;2024-03-07T05:07:18;27.23;;;13.05;;
72557;SDS011;60583;50.094;8.748;2024-03-07T05:10:03;25.23;;;13.07;;
72557;SDS011;60583;50.094;8.748;2024-03-07T05:12:48;27.48;;;13.80;;
72557;SDS011;60583;50.094;8.748;2024-03-07T05:15:32;27.38;;;13.57;;
72557;SDS011;60583;50.094;8.748;2024-03-07T05:18:16;28.88;;;15.52;;
72557;SDS011;60583;50.094;8.748;2024-03-07T05:21:00;26.05;;;13.02;;
72557;SDS011;60583;50.094;8.748;2024-03-07T05:24:04;29.02;;;13.77;;
72557;SDS011;60583;50.094;8.748;2024-03-07T05:26:49;27.55;;;12.40;;
72557;SDS011;60583;50.094;8.748;2024-03-07T05:29:33;28.50;;;14.02;;
72557;SDS011;60583;50.094;8.748;2024-03-07T05:32:20;29.15;;;13.65;;
72557;SDS011;60583;50.094;8.748;2024-03-07T05:35:06;25.25;;;13.00;;
72557;SDS011;60583;50.094;8.748;2024-03-07T05:37:50;26.17;;;15.10;;
72557;SDS011;60583;50.094;8.748;2024-03-07T05:40:34;30.60;;;14.40;;
72557;SDS011;60583;50.094;8.748;2024-03-07T05:43:18;28.90;;;13.75;;
72557;SDS011;60583;50.094;8.748;2024-03-07T05:46:03;30.00;;;14.98;;
72557;SDS011;60583;50.094;8.748;2024-03-07T05:48:49;25.17;;;14.02;;
72557;SDS011;60583;50.094;8.748;2024-03-07T05:51:35;29.77;;;13.85;;
72557;SDS011;60583;50.094;8.748;2024-03-07T05:54:19;27.73;;;14.57;;
72557;SDS011;60583;50.094;8.748;2024-03-07T05:57:03;27.70;;;13.50;;
72557;SDS011;60583;50.094;8.748;2024-03-07T05:59:50;25.50;;;14.98;;
72557;SDS011;60583;50.094;8.748;2024-03-07T06:02:34;26.80;;;14.10;;
72557;SDS011;60583;50.094;8.748;2024-03-07T06:05:17;27.92;;;14.48;;
72557;SDS011;60583;50.094;8.748;2024-03-07T06:08:02;26.85;;;14.43;;
72557;SDS011;60583;50.094;8.748;2024-03-07T06:10:50;29.52;;;14.75;;
72557;SDS011;60583;50.094;8.748;2024-03-07T06:13:34;26.00;;;14.32;;
72557;SDS011;60583;50.094;8.748;2024-03-07T06:16:18;29.83;;;13.85;;
72557;SDS011;60583;50.094;8.748;2024-03-07T06:19:04;26.38;;;13.93;;
72557;SDS011;60583;50.094;8.748;2024-03-07T06:21:52;27.98;;;12.93;;
72557;SDS011;60583;50.094;8.748;2024-03-07T06:24:37;31.20;;;13.70;;
72557;SDS011;60583;50.094;8.748;2024-03-07T06:27:23;28.73;;;13.00;;
72557;SDS011;60583;50.094;8.748;2024-03-07T06:30:20;26.05;;;12.10;;
72557;SDS011;60583;50.094;8.748;2024-03-07T06:33:04;28.35;;;14.52;;
72557;SDS011;60583;50.094;8.748;2024-03-07T06:35:48;25.88;;;12.27;;
72557;SDS011;60583;50.094;8.748;2024-03-07T06:38:32;25.10;;;14.05;;
72557;SDS011;60583;50.094;8.748;2024-03-07T06:41:16;25.77;;;13.73;;
72557;SDS011;60583;50.094;8.748;2024-03-07T06:44:00;23.00;;;12.40;;
72557;SDS011;60583;50.094;8.748;2024-03-07T06:46:44;27.75;;;14.75;;
72557;SDS011;60583;50.094;8.748;2024-03-07T06:49:29;27.10;;;13.13;;
72557;SDS011;60583;50.094;8.748;2024-03-07T06:52:14;25.95;;;13.20;;
72557;SDS011;60583;50.094;8.748;2024-03-07T06:54:58;27.48;;;13.95;;
72557;SDS011;60583;50.094;8.748;2024-03-07T06:57:43;28.52;;;14.13;;
72557;SDS011;60583;50.094;8.748;2024-03-07T07:00:27;29.50;;;14.10;;
72557;SDS011;60583;50.094;8.748;2024-03-07T07:03:11;25.85;;;14.18;;
72557;SDS011;60583;50.094;8.748;2024-03-07T07:05:57;25.83;;;14.55;;
72557;SDS011;60583;50.094;8.748;2024-03-07T07:08:42;25.63;;;14.02;;
72557;SDS011;60583;50.094;8.748;2024-03-07T07:11:28;26.25;;;12.88;;
72557;SDS011;60583;50.094;8.748;2024-03-07T07:14:11;26.92;;;14.13;;
72557;SDS011;60583;50.094;8.748;2024-03-07T07:16:55;27.60;;;13.27;;
72557;SDS011;60583;50.094;8.748;2024-03-07T07:19:39;26.92;;;14.02;;
72557;SDS011;60583;50.094;8.748;2024-03-07T07:22:24;25.92;;;13.30;;
72557;SDS011;60583;50.094;8.748;2024-03-07T07:25:08;26.77;;;14.52;;
72557;SDS011;60583;50.094;8.748;2024-03-07T07:27:57;28.25;;;13.43;;
72557;SDS011;60583;50.094;8.748;2024-03-07T07:30:41;25.27;;;12.85;;
72557;SDS011;60583;50.094;8.748;2024-03-07T07:33:25;25.05;;;12.93;;
72557;SDS011;60583;50.094;8.748;2024-03-07T07:36:09;24.85;;;13.57;;
72557;SDS011;60583;50.094;8.748;2024-03-07T07:38:53;24.15;;;13.15;;
72557;SDS011;60583;50.094;8.748;2024-03-07T07:41:37;24.38;;;13.23;;
72557;SDS011;60583;50.094;8.748;2024-03-07T07:44:21;26.15;;;13.48;;
72557;SDS011;60583;50.094;8.748;2024-03-07T07:47:06;26.50;;;13.45;;
72557;SDS011;60583;50.094;8.748;2024-03-07T07:49:50;22.92;;;13.18;;
72557;SDS011;60583;50.094;8.748;2024-03-07T07:52:34;26.45;;;12.93;;
72557;SDS011;60583;50.094;8.748;2024-03-07T07:55:28;25.05;;;13.20;;
72557;SDS011;60583;50.094;8.748;2024-03-07T07:58:12;23.65;;;14.02;;
72557;SDS011;60583;50.094;8.748;2024-03-07T08:00:56;23.98;;;14.52;;
72557;SDS011;60583;50.094;8.748;2024-03-07T08:03:40;24.55;;;14.65;;
72557;SDS011;60583;50.094;8.748;2024-03-07T08:06:24;24.50;;;12.95;;
72557;SDS011;60583;50.094;8.748;2024-03-07T08:09:08;22.70;;;13.30;;
72557;SDS011;60583;50.094;8.748;2024-03-07T08:11:53;24.48;;;13.23;;
72557;SDS011;60583;50.094;8.748;2024-03-07T08:14:37;22.30;;;13.95;;
72557;SDS011;60583;50.094;8.748;2024-03-07T08:17:21;23.77;;;12.00;;
72557;SDS011;60583;50.094;8.748;2024-03-07T08:20:05;23.52;;;12.18;;
72557;SDS011;60583;50.094;8.748;2024-03-07T08:22:54;23.17;;;12.93;;
72557;SDS011;60583;50.094;8.748;2024-03-07T08:25:39;23.55;;;12.57;;
72557;SDS011;60583;50.094;8.748;2024-03-07T08:28:24;22.30;;;11.27;;
72557;SDS011;60583;50.094;8.748;2024-03-07T08:31:08;25.25;;;11.65;;
72557;SDS011;60583;50.094;8.748;2024-03-07T08:33:52;20.67;;;11.60;;
72557;SDS011;60583;50.094;8.748;2024-03-07T08:36:37;20.98;;;10.90;;
72557;SDS011;60583;50.094;8.748;2024-03-07T08:39:23;19.45;;;10.55;;
72557;SDS011;60583;50.094;8.748;2024-03-07T08:42:07;20.17;;;11.35;;
72557;SDS011;60583;50.094;8.748;2024-03-07T08:44:51;19.60;;;10.65;;
72557;SDS011;60583;50.094;8.748;2024-03-07T08:47:35;19.85;;;10.63;;
72557;SDS011;60583;50.094;8.748;2024-03-07T08:50:20;18.95;;;10.77;;
72557;SDS011;60583;50.094;8.748;2024-03-07T08:53:04;20.45;;;11.18;;
72557;SDS011;60583;50.094;8.748;2024-03-07T08:55:48;19.83;;;12.00;;
72557;SDS011;60583;50.094;8.748;2024-03-07T08:58:32;19.67;;;11.38;;
72557;SDS011;60583;50.094;8.748;2024-03-07T09:01:16;20.55;;;10.77;;
72557;SDS011;60583;50.094;8.748;2024-03-07T09:04:01;23.50;;;11.98;;
72557;SDS011;60583;50.094;8.748;2024-03-07T09:06:45;19.90;;;10.90;;
72557;SDS011;60583;50.094;8.748;2024-03-07T09:09:30;19.45;;;12.23;;
72557;SDS011;60583;50.094;8.748;2024-03-07T09:12:14;20.88;;;11.57;;
72557;SDS011;60583;50.094;8.748;2024-03-07T09:14:58;20.85;;;11.10;;
72557;SDS011;60583;50.094;8.748;2024-03-07T09:17:43;21.55;;;11.02;;
72557;SDS011;60583;50.094;8.748;2024-03-07T09:20:27;18.67;;;11.00;;
72557;SDS011;60583;50.094;8.748;2024-03-07T09:23:11;19.45;;;11.20;;
72557;SDS011;60583;50.094;8.748;2024-03-07T09:25:55;22.52;;;11.90;;
72557;SDS011;60583;50.094;8.748;2024-03-07T09:28:40;23.10;;;11.20;;
72557;SDS011;60583;50.094;8.748;2024-03-07T09:31:23;19.70;;;10.48;;
72557;SDS011;60583;50.094;8.748;2024-03-07T09:34:08;21.77;;;11.25;;
72557;SDS011;60583;50.094;8.748;2024-03-07T09:36:52;21.98;;;11.18;;
72557;SDS011;60583;50.094;8.748;2024-03-07T09:39:36;22.42;;;12.20;;
72557;SDS011;60583;50.094;8.748;2024-03-07T09:42:20;20.70;;;10.73;;
72557;SDS011;60583;50.094;8.748;2024-03-07T09:45:06;22.85;;;12.05;;
72557;SDS011;60583;50.094;8.748;2024-03-07T09:47:52;23.67;;;12.35;;
72557;SDS011;60583;50.094;8.748;2024-03-07T09:50:37;21.65;;;11.40;;
72557;SDS011;60583;50.094;8.748;2024-03-07T09:53:22;21.17;;;12.27;;
72557;SDS011;60583;50.094;8.748;2024-03-07T09:56:09;20.58;;;10.65;;
72557;SDS011;60583;50.094;8.748;2024-03-07T09:58:57;20.75;;;10.77;;
72557;SDS011;60583;50.094;8.748;2024-03-07T10:01:45;23.30;;;11.98;;
72557;SDS011;60583;50.094;8.748;2024-03-07T10:04:33;20.42;;;11.35;;
72557;SDS011;60583;50.094;8.748;2024-03-07T10:07:24;22.38;;;11.48;;
72557;SDS011;60583;50.094;8.748;2024-03-07T10:10:09;20.63;;;10.80;;
72557;SDS011;60583;50.094;8.748;2024-03-07T10:12:55;20.45;;;11.77;;
72557;SDS011;60583;50.094;8.748;2024-03-07T10:15:43;22.65;;;12.10;;
72557;SDS011;60583;50.094;8.748;2024-03-07T10:18:27;22.45;;;11.48;;
72557;SDS011;60583;50.094;8.748;2024-03-07T10:21:12;21.73;;;10.63;;
72557;SDS011;60583;50.094;8.748;2024-03-07T10:24:03;19.30;;;11.43;;
72557;SDS011;60583;50.094;8.748;2024-03-07T10:29:26;20.52;;;9.77;;
72557;SDS011;60583;50.094;8.748;2024-03-07T10:32:11;21.38;;;10.88;;
72557;SDS011;60583;50.094;8.748;2024-03-07T10:34:56;20.77;;;11.40;;
72557;SDS011;60583;50.094;8.748;2024-03-07T10:37:42;21.48;;;11.82;;
72557;SDS011;60583;50.094;8.748;2024-03-07T10:40:28;20.58;;;10.75;;
72557;SDS011;60583;50.094;8.748;2024-03-07T10:43:13;20.08;;;10.65;;
72557;SDS011;60583;50.094;8.748;2024-03-07T10:45:58;20.38;;;11.18;;
72557;SDS011;60583;50.094;8.748;2024-03-07T10:48:50;20.90;;;11.43;;
72557;SDS011;60583;50.094;8.748;2024-03-07T10:51:44;20.88;;;10.45;;
72557;SDS011;60583;50.094;8.748;2024-03-07T10:54:36;20.17;;;11.70;;
72557;SDS011;60583;50.094;8.748;2024-03-07T11:00:39;21.42;;;11.90;;
72557;SDS011;60583;50.094;8.748;2024-03-07T11:03:31;21.10;;;10.70;;
72557;SDS011;60583;50.094;8.748;2024-03-07T11:06:16;22.52;;;11.40;;
72557;SDS011;60583;50.094;8.748;2024-03-07T11:09:02;21.83;;;12.77;;
72557;SDS011;60583;50.094;8.748;2024-03-07T11:11:54;20.23;;;11.35;;
72557;SDS011;60583;50.094;8.748;2024-03-07T11:14:40;20.73;;;11.40;;
72557;SDS011;60583;50.094;8.748;2024-03-07T11:17:27;20.20;;;10.60;;
72557;SDS011;60583;50.094;8.748;2024-03-07T11:20:24;20.15;;;11.25;;
72557;SDS011;60583;50.094;8.748;2024-03-07T11:26:12;19.65;;;10.90;;
72557;SDS011;60583;50.094;8.748;2024-03-07T11:28:57;17.50;;;10.27;;
72557;SDS011;60583;50.094;8.748;2024-03-07T11:31:42;19.70;;;10.30;;
72557;SDS011;60583;50.094;8.748;2024-03-07T11:34:29;17.88;;;9.90;;
72557;SDS011;60583;50.094;8.748;2024-03-07T11:40:59;17.42;;;10.43;;
72557;SDS011;60583;50.094;8.748;2024-03-07T11:43:17;18.17;;;11.10;;
72557;SDS011;60583;50.094;8.748;2024-03-07T11:46:01;17.25;;;11.27;;
72557;SDS011;60583;50.094;8.748;2024-03-07T11:48:46;18.05;;;10.52;;
72557;SDS011;60583;50.094;8.748;2024-03-07T11:51:31;18.40;;;11.45;;
72557;SDS011;60583;50.094;8.748;2024-03-07T11:54:18;18.67;;;11.23;;
72557;SDS011;60583;50.094;8.748;2024-03-07T11:57:08;19.17;;;10.48;;
72557;SDS011;60583;50.094;8.748;2024-03-07T11:59:56;16.60;;;11.27;;
72557;SDS011;60583;50.094;8.748;2024-03-07T12:02:40;17.35;;;11.13;;
72557;SDS011;60583;50.094;8.748;2024-03-07T12:05:27;19.77;;;10.35;;
72557;SDS011;60583;50.094;8.748;2024-03-07T12:08:11;17.65;;;10.45;;
72557;SDS011;60583;50.094;8.748;2024-03-07T12:10:55;18.38;;;11.45;;
72557;SDS011;60583;50.094;8.748;2024-03-07T12:13:39;18.10;;;10.38;;
72557;SDS011;60583;50.094;8.748;2024-03-07T12:16:24;17.63;;;10.68;;
72557;SDS011;60583;50.094;8.748;2024-03-07T12:19:08;16.17;;;10.13;;
72557;SDS011;60583;50.094;8.748;2024-03-07T12:21:56;15.48;;;9.25;;
72557;SDS011;60583;50.094;8.748;2024-03-07T12:24:43;17.35;;;9.43;;
72557;SDS011;60583;50.094;8.748;2024-03-07T12:27:27;16.33;;;8.80;;
72557;SDS011;60583;50.094;8.748;2024-03-07T12:30:15;15.18;;;9.45;;
72557;SDS011;60583;50.094;8.748;2024-03-07T12:33:03;15.50;;;9.18;;
72557;SDS011;60583;50.094;8.748;2024-03-07T12:35:48;15.23;;;9.38;;
72557;SDS011;60583;50.094;8.748;2024-03-07T12:38:36;14.18;;;8.40;;
72557;SDS011;60583;50.094;8.748;2024-03-07T12:41:20;12.93;;;9.00;;
72557;SDS011;60583;50.094;8.748;2024-03-07T12:44:06;14.98;;;9.68;;
72557;SDS011;60583;50.094;8.748;2024-03-07T12:46:53;14.43;;;8.85;;
72557;SDS011;60583;50.094;8.748;2024-03-07T12:49:42;14.52;;;9.25;;
72557;SDS011;60583;50.094;8.748;2024-03-07T12:55:11;15.07;;;8.23;;
72557;SDS011;60583;50.094;8.748;2024-03-07T12:57:57;13.90;;;8.15;;
72557;SDS011;60583;50.094;8.748;2024-03-07T13:00:41;12.43;;;7.97;;
72557;SDS011;60583;50.094;8.748;2024-03-07T13:03:27;12.95;;;8.05;;
72557;SDS011;60583;50.094;8.748;2024-03-07T13:06:14;13.60;;;8.30;;
72557;SDS011;60583;50.094;8.748;2024-03-07T13:08:59;11.73;;;7.90;;
72557;SDS011;60583;50.094;8.748;2024-03-07T13:11:43;13.52;;;9.15;;
72557;SDS011;60583;50.094;8.748;2024-03-07T13:14:31;13.38;;;8.32;;
72557;SDS011;60583;50.094;8.748;2024-03-07T13:17:18;14.15;;;8.27;;
72557;SDS011;60583;50.094;8.748;2024-03-07T13:20:02;11.98;;;7.03;;
72557;SDS011;60583;50.094;8.748;2024-03-07T13:22:55;11.27;;;7.00;;
72557;SDS011;60583;50.094;8.748;2024-03-07T13:25:40;11.18;;;6.57;;
72557;SDS011;60583;50.094;8.748;2024-03-07T13:28:25;10.98;;;6.57;;
72557;SDS011;60583;50.094;8.748;2024-03-07T13:31:10;12.07;;;7.20;;
72557;SDS011;60583;50.094;8.748;2024-03-07T13:34:00;12.20;;;6.90;;
72557;SDS011;60583;50.094;8.748;2024-03-07T13:36:45;11.40;;;6.63;;
72557;SDS011;60583;50.094;8.748;2024-03-07T13:39:29;10.95;;;7.28;;
72557;SDS011;60583;50.094;8.748;2024-03-07T13:42:13;12.55;;;6.85;;
72557;SDS011;60583;50.094;8.748;2024-03-07T13:44:57;11.63;;;6.45;;
72557;SDS011;60583;50.094;8.748;2024-03-07T13:47:41;10.95;;;6.22;;
72557;SDS011;60583;50.094;8.748;2024-03-07T13:50:26;11.60;;;6.75;;
72557;SDS011;60583;50.094;8.748;2024-03-07T13:53:14;10.95;;;7.00;;
72557;SDS011;60583;50.094;8.748;2024-03-07T14:08:32;12.45;;;6.68;;
72557;SDS011;60583;50.094;8.748;2024-03-07T14:11:40;13.93;;;7.05;;
72557;SDS011;60583;50.094;8.748;2024-03-07T14:24:56;12.50;;;7.85;;
72557;SDS011;60583;50.094;8.748;2024-03-07T14:31:22;12.52;;;7.03;;
72557;SDS011;60583;50.094;8.748;2024-03-07T14:37:11;13.48;;;7.15;;
72557;SDS011;60583;50.094;8.748;2024-03-07T14:40:09;12.77;;;6.68;;
72557;SDS011;60583;50.094;8.748;2024-03-07T14:45:44;12.50;;;7.60;;
72557;SDS011;60583;50.094;8.748;2024-03-07T14:48:28;16.48;;;7.43;;
72557;SDS011;60583;50.094;8.748;2024-03-07T14:51:12;14.80;;;6.95;;
72557;SDS011;60583;50.094;8.748;2024-03-07T14:53:57;12.23;;;6.82;;
72557;SDS011;60583;50.094;8.748;2024-03-07T14:56:41;13.70;;;7.30;;
72557;SDS011;60583;50.094;8.748;2024-03-07T14:59:26;14.68;;;7.95;;
72557;SDS011;60583;50.094;8.748;2024-03-07T15:02:10;14.50;;;7.15;;
72557;SDS011;60583;50.094;8.748;2024-03-07T15:04:57;14.13;;;7.13;;
72557;SDS011;60583;50.094;8.748;2024-03-07T15:07:42;12.75;;;7.07;;
72557;SDS011;60583;50.094;8.748;2024-03-07T15:10:30;11.38;;;6.07;;
72557;SDS011;60583;50.094;8.748;2024-03-07T15:13:17;11.80;;;6.20;;
72557;SDS011;60583;50.094;8.748;2024-03-07T15:16:01;11.10;;;6.25;;
72557;SDS011;60583;50.094;8.748;2024-03-07T15:18:45;12.88;;;6.68;;
72557;SDS011;60583;50.094;8.748;2024-03-07T15:21:29;12.88;;;7.03;;
72557;SDS011;60583;50.094;8.748;2024-03-07T15:24:13;12.43;;;7.40;;
72557;SDS011;60583;50.094;8.748;2024-03-07T15:26:57;14.05;;;7.95;;
72557;SDS011;60583;50.094;8.748;2024-03-07T15:29:41;12.10;;;6.38;;
72557;SDS011;60583;50.094;8.748;2024-03-07T15:32:25;12.88;;;7.55;;
72557;SDS011;60583;50.094;8.748;2024-03-07T15:35:10;13.98;;;7.97;;
72557;SDS011;60583;50.094;8.748;2024-03-07T15:38:04;13.07;;;7.00;;
72557;SDS011;60583;50.094;8.748;2024-03-07T15:40:48;14.40;;;7.38;;
72557;SDS011;60583;50.094;8.748;2024-03-07T15:43:34;13.95;;;7.43;;
72557;SDS011;60583;50.094;8.748;2024-03-07T15:46:18;14.35;;;7.10;;
72557;SDS011;60583;50.094;8.748;2024-03-07T15:49:02;14.05;;;7.55;;
72557;SDS011;60583;50.094;8.748;2024-03-07T15:51:46;14.85;;;8.10;;
72557;SDS011;60583;50.094;8.748;2024-03-07T15:54:30;15.13;;;8.20;;
72557;SDS011;60583;50.094;8.748;2024-03-07T15:57:14;12.32;;;6.32;;
72557;SDS011;60583;50.094;8.748;2024-03-07T15:59:58;13.68;;;7.63;;
72557;SDS011;60583;50.094;8.748;2024-03-07T16:02:42;14.80;;;7.45;;
72557;SDS011;60583;50.094;8.748;2024-03-07T16:05:30;14.95;;;7.57;;
72557;SDS011;60583;50.094;8.748;2024-03-07T16:08:15;14.13;;;7.68;;
72557;SDS011;60583;50.094;8.748;2024-03-07T16:11:03;14.15;;;7.28;;
72557;SDS011;60583;50.094;8.748;2024-03-07T16:13:47;12.10;;;7.28;;
72557;SDS011;60583;50.094;8.748;2024-03-07T16:16:31;12.80;;;6.72;;
72557;SDS011;60583;50.094;8.748;2024-03-07T16:19:15;13.43;;;7.55;;
72557;SDS011;60583;50.094;8.748;2024-03-07T16:21:59;14.98;;;8.18;;
72557;SDS011;60583;50.094;8.748;2024-03-07T16:24:46;14.15;;;6.95;;
72557;SDS011;60583;50.094;8.748;2024-03-07T16:27:30;15.05;;;7.38;;
72557;SDS011;60583;50.094;8.748;2024-03-07T16:30:14;11.55;;;6.38;;
72557;SDS011;60583;50.094;8.748;2024-03-07T16:33:06;13.25;;;6.88;;
72557;SDS011;60583;50.094;8.748;2024-03-07T16:35:50;13.38;;;6.90;;
72557;SDS011;60583;50.094;8.748;2024-03-07T16:38:34;14.35;;;8.07;;
72557;SDS011;60583;50.094;8.748;2024-03-07T16:41:19;18.90;;;8.32;;
72557;SDS011;60583;50.094;8.748;2024-03-07T16:44:03;16.13;;;7.47;;
72557;SDS011;60583;50.094;8.748;2024-03-07T16:46:47;12.73;;;6.53;;
72557;SDS011;60583;50.094;8.748;2024-03-07T16:49:31;14.80;;;7.38;;
72557;SDS011;60583;50.094;8.748;2024-03-07T16:52:15;13.52;;;6.38;;
72557;SDS011;60583;50.094;8.748;2024-03-07T16:54:59;13.65;;;6.82;;
72557;SDS011;60583;50.094;8.748;2024-03-07T16:57:44;13.43;;;7.25;;
72557;SDS011;60583;50.094;8.748;2024-03-07T17:00:30;14.70;;;7.68;;
72557;SDS011;60583;50.094;8.748;2024-03-07T17:03:14;19.63;;;9.95;;